createdAt,value
2018-12-09T00:02:02.543Z,92.54
2018-12-09T00:04:31.248Z,92.87
2018-12-09T00:07:00.077Z,92.36
2018-12-09T00:09:29.036Z,92.45
2018-12-09T00:11:57.687Z,92.82
2018-12-09T00:14:26.851Z,92.59
2018-12-09T00:16:56.254Z,92.37
2018-12-09T00:19:25.218Z,92.29
2018-12-09T00:21:53.837Z,92.64
2018-12-09T00:24:22.520Z,92.35
2018-12-09T00:26:51.359Z,92.77
2018-12-09T00:29:20.040Z,92.54
2018-12-09T00:31:48.748Z,92.66
2018-12-09T00:34:17.676Z,92.23
2018-12-09T00:36:46.506Z,92.65
2018-12-09T00:39:15.364Z,92.18
2018-12-09T00:41:44.316Z,92.21
2018-12-09T00:44:12.983Z,92.24
2018-12-09T00:46:42.470Z,92.27
2018-12-09T00:49:11.355Z,92.80
2018-12-09T00:51:40.151Z,92.48
2018-12-09T00:54:08.942Z,91.91
2018-12-09T00:56:37.910Z,91.96
2018-12-09T00:59:06.591Z,92.47
2018-12-09T01:01:35.409Z,92.21
2018-12-09T01:04:04.203Z,92.01
2018-12-09T01:06:32.894Z,92.04
2018-12-09T01:09:01.593Z,92.00
2018-12-09T01:11:30.508Z,92.27
2018-12-09T01:13:59.388Z,91.83
2018-12-09T01:16:28.262Z,92.28
2018-12-09T01:18:57.121Z,91.85
2018-12-09T01:21:25.877Z,92.55
2018-12-09T01:23:54.595Z,92.47
2018-12-09T01:26:23.524Z,92.05
2018-12-09T01:28:52.288Z,91.88
2018-12-09T01:31:20.989Z,92.44
2018-12-09T01:33:49.644Z,91.99
2018-12-09T01:36:18.667Z,92.29
2018-12-09T01:38:47.517Z,91.98
2018-12-09T01:41:16.267Z,92.12
2018-12-09T01:43:45.224Z,92.25
2018-12-09T01:46:13.840Z,92.01
2018-12-09T01:48:43.006Z,92.33
2018-12-09T01:51:11.834Z,91.92
2018-12-09T01:54:12.601Z,92.24
2018-12-09T01:56:41.429Z,92.02
2018-12-09T01:59:10.068Z,92.46
2018-12-09T02:01:38.853Z,91.92
2018-12-09T02:04:07.715Z,91.60
2018-12-09T02:06:36.964Z,91.71
2018-12-09T02:09:08.111Z,92.33
2018-12-09T02:11:37.398Z,91.91
2018-12-09T02:14:06.466Z,92.32
2018-12-09T02:16:35.803Z,92.04
2018-12-09T02:19:18.917Z,91.98
2018-12-09T02:21:47.901Z,92.15
2018-12-09T02:24:17.383Z,92.06
2018-12-09T02:26:46.325Z,91.66
2018-12-09T02:29:15.265Z,91.33
2018-12-09T02:31:44.452Z,91.90
2018-12-09T02:34:13.060Z,92.32
2018-12-09T02:36:41.755Z,92.20
2018-12-09T02:39:11.815Z,91.83
2018-12-09T02:41:40.479Z,91.36
2018-12-09T02:44:09.285Z,91.38
2018-12-09T02:46:38.275Z,91.58
2018-12-09T02:49:06.981Z,91.43
2018-12-09T02:51:35.696Z,91.82
2018-12-09T02:54:04.672Z,92.16
2018-12-09T02:56:33.481Z,91.89
2018-12-09T02:59:02.423Z,92.04
2018-12-09T03:01:31.225Z,92.32
2018-12-09T03:03:59.849Z,92.61
2018-12-09T03:06:28.597Z,92.11
2018-12-09T03:08:57.247Z,91.85
2018-12-09T03:11:25.945Z,91.91
2018-12-09T03:13:54.680Z,91.71
2018-12-09T03:16:23.508Z,91.76
2018-12-09T03:18:52.221Z,92.34
2018-12-09T03:21:20.975Z,91.62
2018-12-09T03:23:49.622Z,91.87
2018-12-09T03:26:18.697Z,91.95
2018-12-09T03:28:47.371Z,91.79
2018-12-09T03:31:16.275Z,92.25
2018-12-09T03:33:45.156Z,93.01
2018-12-09T03:36:15.035Z,92.10
2018-12-09T03:38:43.824Z,92.55
2018-12-09T03:41:12.670Z,92.72
2018-12-09T03:43:41.455Z,92.68
2018-12-09T03:46:10.134Z,92.49
2018-12-09T03:48:39.134Z,92.61
2018-12-09T03:51:08.112Z,92.00
2018-12-09T03:53:37.017Z,92.16
2018-12-09T03:56:05.743Z,92.60
2018-12-09T03:58:34.742Z,91.99
2018-12-09T04:01:03.487Z,92.36
2018-12-09T04:03:32.273Z,91.94
2018-12-09T04:06:01.331Z,91.81
2018-12-09T04:08:30.128Z,92.51
2018-12-09T04:10:59.106Z,92.77
2018-12-09T04:13:27.926Z,92.76
2018-12-09T04:15:57.343Z,92.66
2018-12-09T04:18:26.265Z,92.14
2018-12-09T04:20:54.977Z,92.21
2018-12-09T04:23:23.962Z,92.69
2018-12-09T04:25:52.783Z,92.59
2018-12-09T04:28:21.648Z,92.85
2018-12-09T04:30:50.471Z,93.07
2018-12-09T04:33:19.737Z,92.71
2018-12-09T04:35:48.613Z,93.06
2018-12-09T04:38:17.861Z,93.03
2018-12-09T04:40:46.976Z,92.51
2018-12-09T04:43:15.796Z,92.74
2018-12-09T04:45:44.530Z,92.71
2018-12-09T04:48:13.315Z,92.71
2018-12-09T04:50:42.322Z,92.46
2018-12-09T04:53:11.198Z,93.02
2018-12-09T04:55:39.979Z,92.32
2018-12-09T04:58:08.662Z,92.80
2018-12-09T05:00:58.106Z,93.21
2018-12-09T05:03:27.081Z,93.45
2018-12-09T05:05:55.931Z,93.18
2018-12-09T05:08:24.841Z,92.68
2018-12-09T05:10:53.683Z,92.92
2018-12-09T05:13:22.540Z,93.17
2018-12-09T05:15:51.175Z,92.92
2018-12-09T05:18:19.902Z,92.71
2018-12-09T05:20:48.767Z,92.54
2018-12-09T05:23:17.612Z,93.13
2018-12-09T05:25:46.279Z,92.41
2018-12-09T05:28:14.932Z,92.52
2018-12-09T05:30:43.728Z,92.50
2018-12-09T05:33:12.384Z,92.24
2018-12-09T05:35:41.336Z,92.23
2018-12-09T05:38:09.974Z,91.85
2018-12-09T05:40:39.009Z,92.66
2018-12-09T05:43:07.642Z,92.64
2018-12-09T05:45:36.409Z,92.37
2018-12-09T05:48:05.074Z,92.70
2018-12-09T05:50:33.836Z,92.62
2018-12-09T05:53:02.462Z,92.22
2018-12-09T05:55:31.518Z,93.27
2018-12-09T05:58:00.235Z,92.99
2018-12-09T06:00:28.837Z,92.30
2018-12-09T06:02:58.358Z,92.69
2018-12-09T06:05:27.054Z,92.57
2018-12-09T06:07:55.845Z,92.36
2018-12-09T06:10:24.538Z,92.14
2018-12-09T06:12:53.481Z,92.05
2018-12-09T06:15:22.384Z,92.34
2018-12-09T06:17:51.159Z,92.08
2018-12-09T06:20:19.956Z,91.92
2018-12-09T06:22:48.695Z,92.19
2018-12-09T06:25:17.374Z,92.76
2018-12-09T06:27:47.090Z,92.06
2018-12-09T06:30:16.442Z,92.46
2018-12-09T06:32:45.434Z,92.51
2018-12-09T06:35:14.065Z,92.17
2018-12-09T06:37:42.715Z,92.60
2018-12-09T06:40:11.413Z,92.87
2018-12-09T06:42:40.064Z,92.72
2018-12-09T06:45:09.337Z,92.80
2018-12-09T06:47:38.786Z,93.13
2018-12-09T06:50:10.705Z,92.77
2018-12-09T06:52:40.060Z,92.76
2018-12-09T06:55:10.157Z,92.13
2018-12-09T06:57:39.350Z,92.30
2018-12-09T07:00:09.879Z,92.48
2018-12-09T07:02:38.805Z,92.28
2018-12-09T07:05:08.796Z,92.55
2018-12-09T07:07:37.867Z,92.31
2018-12-09T07:10:08.853Z,92.71
2018-12-09T07:12:38.053Z,92.67
2018-12-09T07:15:07.468Z,92.87
2018-12-09T07:17:36.814Z,92.70
2018-12-09T07:20:06.919Z,92.79
2018-12-09T07:22:35.717Z,92.71
2018-12-09T07:25:04.670Z,92.61
2018-12-09T07:27:34.018Z,92.93
2018-12-09T07:30:02.933Z,93.09
2018-12-09T07:32:32.065Z,93.23
2018-12-09T07:35:01.261Z,93.34
2018-12-09T07:37:30.284Z,93.06
2018-12-09T07:39:59.499Z,92.47
2018-12-09T07:42:28.335Z,92.80
2018-12-09T07:44:57.087Z,93.03
2018-12-09T07:47:25.952Z,93.15
2018-12-09T07:49:54.921Z,92.85
2018-12-09T07:52:23.677Z,93.21
2018-12-09T07:54:52.420Z,93.16
2018-12-09T07:57:21.800Z,92.89
2018-12-09T07:59:50.594Z,93.06
2018-12-09T08:02:19.373Z,92.46
2018-12-09T08:04:48.317Z,92.69
2018-12-09T08:07:17.467Z,93.11
2018-12-09T08:09:46.488Z,93.49
2018-12-09T08:12:15.259Z,93.44
2018-12-09T08:14:43.927Z,93.02
2018-12-09T08:17:12.738Z,93.04
2018-12-09T08:19:41.573Z,92.75
2018-12-09T08:22:10.401Z,93.20
2018-12-09T08:24:39.115Z,92.65
2018-12-09T08:27:07.942Z,92.43
2018-12-09T08:29:36.690Z,92.42
2018-12-09T08:32:05.510Z,91.99
2018-12-09T08:34:34.139Z,92.02
2018-12-09T08:37:02.877Z,92.21
2018-12-09T08:39:31.566Z,91.92
2018-12-09T08:42:00.277Z,91.86
2018-12-09T08:44:28.971Z,92.37
2018-12-09T08:46:57.709Z,91.94
2018-12-09T08:49:26.614Z,92.30
2018-12-09T08:51:55.415Z,92.67
2018-12-09T08:54:24.113Z,92.21
2018-12-09T08:56:52.901Z,92.62
2018-12-09T08:59:21.591Z,92.17
2018-12-09T09:01:50.356Z,92.81
2018-12-09T09:04:19.136Z,92.36
2018-12-09T09:06:47.782Z,92.25
2018-12-09T09:09:22.809Z,92.00
2018-12-09T09:11:51.650Z,91.98
2018-12-09T09:14:20.744Z,92.00
2018-12-09T09:16:49.743Z,92.31
2018-12-09T09:19:18.680Z,92.37
2018-12-09T09:21:47.412Z,91.71
2018-12-09T09:24:16.188Z,92.12
2018-12-09T09:26:45.023Z,91.70
2018-12-09T09:29:14.034Z,92.47
2018-12-09T09:31:43.376Z,92.20
2018-12-09T09:34:12.068Z,92.18
2018-12-09T09:36:40.672Z,91.89
2018-12-09T09:39:09.472Z,92.27
2018-12-09T09:41:38.358Z,92.52
2018-12-09T09:44:07.452Z,92.36
2018-12-09T09:46:36.453Z,92.27
2018-12-09T09:49:05.260Z,92.84
2018-12-09T09:51:34.091Z,92.12
2018-12-09T09:54:02.733Z,92.58
2018-12-09T09:56:31.585Z,92.15
2018-12-09T09:59:00.370Z,92.54
2018-12-09T10:01:29.333Z,92.46
2018-12-09T10:03:58.387Z,92.65
2018-12-09T10:06:27.590Z,92.49
2018-12-09T10:08:56.791Z,92.76
2018-12-09T10:11:25.823Z,92.84
2018-12-09T10:13:54.604Z,92.73
2018-12-09T10:16:23.404Z,92.43
2018-12-09T10:18:52.361Z,92.74
2018-12-09T10:21:21.086Z,92.92
2018-12-09T10:23:50.023Z,92.95
2018-12-09T10:26:18.946Z,92.76
2018-12-09T10:28:47.717Z,92.02
2018-12-09T10:31:16.633Z,91.49
2018-12-09T10:33:45.475Z,91.02
2018-12-09T10:36:14.590Z,90.36
2018-12-09T10:38:43.294Z,90.77
2018-12-09T10:41:12.157Z,91.09
2018-12-09T10:43:41.373Z,90.42
2018-12-09T10:46:10.251Z,90.37
2018-12-09T10:48:38.988Z,90.44
2018-12-09T10:51:08.139Z,90.57
2018-12-09T10:53:36.983Z,90.57
2018-12-09T10:56:05.812Z,90.36
2018-12-09T10:58:34.483Z,91.06
2018-12-09T11:01:09.797Z,90.27
2018-12-09T11:03:38.504Z,90.73
2018-12-09T11:06:07.333Z,90.78
2018-12-09T11:08:36.079Z,91.12
2018-12-09T11:11:04.824Z,90.71
2018-12-09T11:13:33.548Z,90.95
2018-12-09T11:17:04.932Z,91.51
2018-12-09T11:19:33.985Z,91.66
2018-12-09T11:22:02.785Z,91.00
2018-12-09T11:24:31.688Z,91.18
2018-12-09T11:27:00.682Z,90.94
2018-12-09T11:29:29.687Z,90.82
2018-12-09T11:31:58.869Z,91.54
2018-12-09T11:34:27.722Z,91.08
2018-12-09T11:36:56.571Z,91.16
2018-12-09T11:39:25.276Z,91.46
2018-12-09T11:41:54.275Z,90.87
2018-12-09T11:44:23.419Z,90.90
2018-12-09T11:46:52.560Z,91.30
2018-12-09T11:49:21.630Z,90.92
2018-12-09T11:51:50.360Z,91.55
2018-12-09T11:54:19.308Z,91.73
2018-12-09T11:56:47.976Z,91.74
2018-12-09T11:59:17.366Z,92.27
2018-12-09T12:01:46.352Z,91.75
2018-12-09T12:04:15.069Z,92.03
2018-12-09T12:06:43.945Z,92.64
2018-12-09T12:09:13.050Z,92.37
2018-12-09T12:11:41.932Z,92.99
2018-12-09T12:14:10.713Z,92.66
2018-12-09T12:16:39.819Z,92.88
2018-12-09T12:19:08.716Z,92.63
2018-12-09T12:21:37.718Z,93.18
2018-12-09T12:24:06.639Z,92.75
2018-12-09T12:26:35.560Z,93.17
2018-12-09T12:29:04.939Z,92.96
2018-12-09T12:31:33.660Z,93.25
2018-12-09T12:34:02.439Z,93.18
2018-12-09T12:36:31.169Z,93.50
2018-12-09T12:39:00.143Z,93.36
2018-12-09T12:41:29.055Z,93.10
2018-12-09T12:43:57.871Z,93.09
2018-12-09T12:46:26.838Z,93.42
2018-12-09T12:48:55.692Z,93.70
2018-12-09T12:51:24.421Z,93.47
2018-12-09T12:53:53.207Z,93.64
2018-12-09T12:56:22.236Z,93.53
2018-12-09T12:58:50.902Z,93.15
2018-12-09T13:01:19.547Z,93.67
2018-12-09T13:03:48.221Z,93.97
2018-12-09T13:06:17.596Z,93.43
2018-12-09T13:08:46.545Z,94.02
2018-12-09T13:11:15.521Z,93.96
2018-12-09T13:13:44.348Z,93.62
2018-12-09T13:16:13.065Z,93.59
2018-12-09T13:18:41.660Z,93.78
2018-12-09T13:21:10.544Z,93.77
2018-12-09T13:23:39.360Z,93.45
2018-12-09T13:26:08.227Z,93.55
2018-12-09T13:28:37.255Z,94.01
2018-12-09T13:31:06.383Z,94.14
2018-12-09T13:33:35.408Z,94.03
2018-12-09T13:36:04.671Z,93.92
2018-12-09T13:38:33.343Z,94.04
2018-12-09T13:41:02.076Z,94.00
2018-12-09T13:43:30.889Z,94.11
2018-12-09T13:45:59.577Z,94.26
2018-12-09T13:48:28.212Z,94.08
2018-12-09T13:50:56.915Z,94.27
2018-12-09T13:53:25.939Z,93.78
2018-12-09T13:55:55.060Z,93.63
2018-12-09T13:58:23.709Z,93.16
2018-12-09T14:00:52.591Z,93.18
2018-12-09T14:03:21.539Z,92.28
2018-12-09T14:05:50.229Z,92.13
2018-12-09T14:08:18.902Z,91.13
2018-12-09T14:10:47.707Z,90.36
2018-12-09T14:13:16.442Z,90.95
2018-12-09T14:15:45.271Z,90.97
2018-12-09T14:18:13.902Z,91.39
2018-12-09T14:20:42.678Z,91.04
2018-12-09T14:23:11.430Z,91.62
2018-12-09T14:25:40.451Z,91.76
2018-12-09T14:28:09.827Z,91.71
2018-12-09T14:30:38.603Z,91.45
2018-12-09T14:33:07.318Z,90.99
2018-12-09T14:35:35.931Z,91.07
2018-12-09T14:38:04.788Z,91.12
2018-12-09T14:40:33.576Z,91.43
2018-12-09T14:43:02.249Z,91.29
2018-12-09T14:45:31.055Z,91.45
2018-12-09T14:47:59.761Z,91.86
2018-12-09T14:50:28.571Z,91.73
2018-12-09T14:52:57.273Z,92.53
2018-12-09T14:55:26.112Z,92.46
2018-12-09T14:57:55.008Z,92.78
2018-12-09T15:00:24.921Z,92.25
2018-12-09T15:02:53.795Z,92.29
2018-12-09T15:05:22.852Z,92.31
2018-12-09T15:07:51.551Z,92.65
2018-12-09T15:10:20.226Z,92.49
2018-12-09T15:12:49.080Z,92.15
2018-12-09T15:15:17.930Z,92.25
2018-12-09T15:17:46.948Z,92.46
2018-12-09T15:20:15.886Z,92.66
2018-12-09T15:22:44.863Z,92.58
2018-12-09T15:25:13.937Z,92.41
2018-12-09T15:27:43.108Z,92.73
2018-12-09T15:30:11.862Z,92.57
2018-12-09T15:32:40.756Z,92.76
2018-12-09T15:35:09.682Z,92.47
2018-12-09T15:37:38.513Z,92.42
2018-12-09T15:40:07.534Z,92.85
2018-12-09T15:42:36.338Z,92.74
2018-12-09T15:45:05.674Z,92.80
2018-12-09T15:47:34.368Z,92.55
2018-12-09T15:50:03.081Z,92.87
2018-12-09T15:52:31.809Z,93.07
2018-12-09T15:55:00.564Z,92.67
2018-12-09T15:57:29.437Z,92.77
2018-12-09T15:59:58.157Z,93.12
2018-12-09T16:02:28.198Z,93.36
2018-12-09T16:04:57.436Z,93.59
2018-12-09T16:07:26.199Z,93.54
2018-12-09T16:09:54.995Z,93.52
2018-12-09T16:12:23.873Z,93.56
2018-12-09T16:14:52.547Z,93.63
2018-12-09T16:17:21.660Z,93.83
2018-12-09T16:19:50.319Z,93.95
2018-12-09T16:22:19.049Z,94.17
2018-12-09T16:24:48.063Z,93.74
2018-12-09T16:27:16.741Z,94.00
2018-12-09T16:29:45.360Z,93.95
2018-12-09T16:32:13.929Z,93.86
2018-12-09T16:34:42.685Z,93.74
2018-12-09T16:37:11.406Z,94.31
2018-12-09T16:39:40.118Z,93.81
2018-12-09T16:42:09.047Z,93.70
2018-12-09T16:44:37.876Z,93.72
2018-12-09T16:47:06.185Z,94.49
2018-12-09T16:49:34.866Z,93.96
2018-12-09T16:52:03.480Z,94.33
2018-12-09T16:54:32.132Z,93.89
2018-12-09T16:57:00.786Z,93.79
2018-12-09T16:59:29.611Z,93.87
2018-12-09T17:01:58.305Z,93.45
2018-12-09T17:04:27.128Z,93.57
2018-12-09T17:06:56.208Z,93.65
2018-12-09T17:09:25.274Z,93.94
2018-12-09T17:11:54.159Z,93.35
2018-12-09T17:14:23.108Z,93.28
2018-12-09T17:16:52.035Z,93.10
2018-12-09T17:19:20.873Z,92.81
2018-12-09T17:21:49.799Z,92.41
2018-12-09T17:24:18.579Z,91.91
2018-12-09T17:26:47.261Z,91.42
2018-12-09T17:29:16.156Z,90.56
2018-12-09T17:31:44.940Z,90.78
2018-12-09T17:34:13.666Z,90.69
2018-12-09T17:36:42.402Z,90.73
2018-12-09T17:39:11.044Z,90.46
2018-12-09T17:41:39.820Z,90.24
2018-12-09T17:44:08.526Z,90.43
2018-12-09T17:46:37.313Z,90.34
2018-12-09T17:49:06.275Z,90.73
2018-12-09T17:51:35.165Z,90.48
2018-12-09T17:54:04.117Z,91.17
2018-12-09T17:56:32.943Z,91.38
2018-12-09T17:59:01.665Z,91.38
2018-12-09T18:01:30.376Z,91.09
2018-12-09T18:04:00.640Z,91.46
2018-12-09T18:06:30.122Z,91.42
2018-12-09T18:08:59.315Z,91.59
2018-12-09T18:11:28.297Z,91.95
2018-12-09T18:13:57.451Z,91.70
2018-12-09T18:16:26.490Z,91.56
2018-12-09T18:18:55.464Z,91.65
2018-12-09T18:21:24.619Z,92.46
2018-12-09T18:23:53.755Z,92.82
2018-12-09T18:26:22.877Z,92.28
2018-12-09T18:28:51.996Z,92.43
2018-12-09T18:31:22.098Z,93.04
2018-12-09T18:33:51.255Z,92.46
2018-12-09T18:36:20.419Z,92.57
2018-12-09T18:38:50.086Z,92.79
2018-12-09T18:41:19.136Z,92.65
2018-12-09T18:43:48.482Z,93.02
2018-12-09T18:46:17.888Z,93.14
2018-12-09T18:48:47.206Z,93.05
2018-12-09T18:51:16.375Z,93.05
2018-12-09T18:53:45.774Z,93.76
2018-12-09T18:56:15.135Z,93.24
2018-12-09T18:58:44.471Z,93.47
2018-12-09T19:01:14.466Z,93.87
2018-12-09T19:03:43.645Z,93.36
2018-12-09T19:06:12.939Z,94.04
2018-12-09T19:08:43.071Z,93.68
2018-12-09T19:11:13.169Z,93.42
2018-12-09T19:13:42.435Z,93.27
2018-12-09T19:16:11.794Z,93.35
2018-12-09T19:18:41.071Z,93.78
2018-12-09T19:21:10.302Z,93.85
2018-12-09T19:23:39.451Z,93.33
2018-12-09T19:26:08.656Z,93.70
2018-12-09T19:28:37.791Z,93.05
2018-12-09T19:31:07.093Z,93.04
2018-12-09T19:33:36.378Z,92.88
2018-12-09T19:36:05.635Z,92.53
2018-12-09T19:38:40.177Z,92.81
2018-12-09T19:41:06.240Z,92.87
2018-12-09T19:43:35.423Z,92.26
2018-12-09T19:46:05.004Z,91.28
2018-12-09T19:48:34.322Z,91.06
2018-12-09T19:51:03.759Z,90.83
2018-12-09T19:53:32.813Z,91.29
2018-12-09T19:56:02.152Z,91.28
2018-12-09T19:58:31.344Z,91.19
2018-12-09T20:01:00.566Z,91.28
2018-12-09T20:03:29.729Z,91.68
2018-12-09T20:05:58.974Z,91.70
2018-12-09T20:08:28.246Z,91.75
2018-12-09T20:10:57.456Z,91.73
2018-12-09T20:13:26.699Z,92.16
2018-12-09T20:15:56.174Z,92.25
2018-12-09T20:18:25.512Z,92.89
2018-12-09T20:20:56.088Z,92.50
2018-12-09T20:23:25.736Z,92.56
2018-12-09T20:25:54.962Z,92.43
2018-12-09T20:28:24.077Z,92.90
2018-12-09T20:30:53.244Z,92.53
2018-12-09T20:33:22.551Z,92.47
2018-12-09T20:35:51.778Z,92.46
2018-12-09T20:38:20.991Z,93.19
2018-12-09T20:40:50.294Z,92.33
2018-12-09T20:43:19.560Z,93.17
2018-12-09T20:45:49.025Z,92.81
2018-12-09T20:48:18.260Z,93.31
2018-12-09T20:50:47.491Z,92.78
2018-12-09T20:53:16.721Z,93.33
2018-12-09T20:55:45.975Z,92.45
2018-12-09T20:58:15.178Z,92.42
2018-12-09T21:00:44.333Z,92.52
2018-12-09T21:03:13.361Z,92.78
2018-12-09T21:05:42.505Z,92.65
2018-12-09T21:08:11.453Z,91.85
2018-12-09T21:18:07.587Z,92.01
2018-12-09T21:20:36.716Z,92.17
2018-12-09T21:23:05.489Z,92.05
2018-12-09T21:25:34.302Z,91.93
2018-12-09T21:28:03.624Z,92.66
2018-12-09T21:30:32.357Z,92.56
2018-12-09T21:33:01.765Z,92.43
2018-12-09T21:35:31.223Z,92.88
2018-12-09T21:38:00.892Z,92.90
2018-12-09T21:40:30.412Z,92.61
2018-12-09T21:42:59.334Z,93.10
2018-12-09T21:45:28.294Z,93.09
2018-12-09T21:47:57.245Z,93.00
2018-12-09T21:50:26.029Z,93.25
2018-12-09T21:52:54.888Z,94.06
2018-12-09T21:55:23.888Z,93.16
2018-12-09T21:57:53.165Z,92.67
2018-12-09T22:00:22.424Z,91.55
2018-12-09T22:02:51.683Z,90.88
2018-12-09T22:05:20.581Z,90.96
2018-12-09T22:07:49.557Z,91.00
2018-12-09T22:10:18.345Z,90.43
2018-12-09T22:12:47.055Z,90.89
2018-12-09T22:15:15.727Z,90.43
2018-12-09T22:17:44.613Z,91.43
2018-12-09T22:20:14.388Z,90.74
2018-12-09T22:22:43.538Z,91.12
2018-12-09T22:25:12.543Z,91.46
2018-12-09T22:27:41.464Z,91.42
2018-12-09T22:30:10.826Z,91.79
2018-12-09T22:32:39.594Z,91.67
2018-12-09T22:35:08.800Z,91.01
2018-12-09T22:37:37.571Z,91.29
2018-12-09T22:41:10.196Z,91.70
2018-12-09T22:43:39.219Z,91.50
2018-12-09T22:46:07.910Z,92.33
2018-12-09T22:48:36.884Z,92.76
2018-12-09T22:51:05.801Z,93.40
2018-12-09T22:53:34.881Z,93.14
2018-12-09T22:56:04.077Z,93.14
2018-12-09T22:58:32.851Z,93.65
2018-12-09T23:01:06.797Z,92.97
2018-12-09T23:03:35.540Z,92.94
2018-12-09T23:06:04.303Z,93.48
2018-12-09T23:08:32.991Z,93.40
2018-12-09T23:11:01.729Z,93.40
2018-12-09T23:13:30.490Z,92.99
2018-12-09T23:15:59.196Z,93.31
2018-12-09T23:18:28.326Z,93.68
2018-12-09T23:20:57.162Z,93.17
2018-12-09T23:23:25.976Z,93.43
2018-12-09T23:25:54.812Z,93.95
2018-12-09T23:28:23.513Z,93.39
2018-12-09T23:30:52.271Z,93.34
2018-12-09T23:33:21.000Z,93.64
2018-12-09T23:35:49.944Z,93.08
2018-12-09T23:38:18.631Z,93.39
2018-12-09T23:40:47.269Z,93.39
2018-12-09T23:43:15.886Z,93.39
2018-12-09T23:45:45.105Z,93.39
2018-12-09T23:48:13.901Z,93.09
2018-12-09T23:50:42.782Z,93.23
2018-12-09T23:53:11.576Z,93.27
2018-12-09T23:55:40.446Z,93.74
2018-12-09T23:58:09.190Z,93.25
